createdAt,value
2018-09-13T00:00:30.442Z,85.01
2018-09-13T00:10:30.448Z,86.55
2018-09-13T00:20:30.459Z,90.72
2018-09-13T00:30:30.362Z,91.68
2018-09-13T00:40:30.559Z,92.81
2018-09-13T00:50:31.366Z,94.10
2018-09-13T01:00:30.572Z,94.36
2018-09-13T01:10:30.507Z,95.11
2018-09-13T01:20:30.425Z,95.86
2018-09-13T01:30:30.461Z,96.00
2018-09-13T01:40:30.328Z,96.16
2018-09-13T01:50:30.462Z,96.26
2018-09-13T02:00:30.456Z,96.57
2018-09-13T02:10:30.435Z,96.56
2018-09-13T02:20:30.924Z,96.62
2018-09-13T02:30:30.475Z,96.56
2018-09-13T02:40:31.071Z,96.89
2018-09-13T02:50:30.386Z,97.38
2018-09-13T03:00:30.452Z,97.45
2018-09-13T03:10:30.424Z,97.63
2018-09-13T03:20:30.469Z,97.40
2018-09-13T03:30:30.481Z,97.28
2018-09-13T03:40:30.438Z,97.42
2018-09-13T03:50:30.493Z,97.53
2018-09-13T04:00:31.085Z,97.72
2018-09-13T04:10:30.457Z,97.72
2018-09-13T04:20:31.020Z,97.73
2018-09-13T04:30:30.667Z,97.84
2018-09-13T04:40:30.553Z,97.91
2018-09-13T04:50:30.471Z,98.04
2018-09-13T05:00:30.516Z,97.81
2018-09-13T05:10:30.466Z,98.22
2018-09-13T05:20:30.456Z,98.03
2018-09-13T05:30:30.480Z,98.25
2018-09-13T05:40:30.514Z,98.43
2018-09-13T05:50:30.490Z,98.39
2018-09-13T06:00:30.597Z,98.28
2018-09-13T06:10:30.428Z,98.08
2018-09-13T06:45:52.799Z,97.54
2018-09-13T06:55:52.765Z,97.21
2018-09-13T07:05:52.843Z,96.62
2018-09-13T07:15:52.752Z,96.84
2018-09-13T07:25:52.731Z,96.46
2018-09-13T07:35:52.674Z,96.50
2018-09-13T07:45:52.651Z,96.79
2018-09-13T07:55:52.702Z,96.31
2018-09-13T08:05:52.601Z,95.71
2018-09-13T08:15:52.856Z,95.12
2018-09-13T08:25:52.636Z,94.47
2018-09-13T08:35:52.714Z,94.70
2018-09-13T08:45:52.637Z,94.69
2018-09-13T08:55:52.671Z,95.18
2018-09-13T09:05:52.746Z,94.35
2018-09-13T09:15:52.676Z,93.79
2018-09-13T09:25:52.689Z,92.65
2018-09-13T09:49:31.409Z,92.52
2018-09-13T09:59:31.468Z,94.49
2018-09-13T10:09:31.487Z,92.32
2018-09-13T10:19:31.551Z,90.35
2018-09-13T10:29:32.314Z,91.59
2018-09-13T10:39:31.425Z,90.16
2018-09-13T10:49:31.590Z,89.77
2018-09-13T10:59:31.502Z,88.04
2018-09-13T11:09:31.459Z,86.58
2018-09-13T11:19:31.695Z,84.93
2018-09-13T11:29:31.368Z,80.18
2018-09-13T11:39:31.667Z,78.43
2018-09-13T11:49:31.463Z,80.96
2018-09-13T11:59:31.509Z,81.63
2018-09-13T12:09:31.495Z,78.94
2018-09-13T12:19:31.629Z,78.90
2018-09-13T12:29:32.443Z,80.14
2018-09-13T12:39:31.541Z,65.21
2018-09-13T12:49:31.457Z,61.57
2018-09-13T12:59:31.462Z,63.03
2018-09-13T13:09:31.492Z,70.76
2018-09-13T13:19:31.635Z,64.54
2018-09-13T13:29:31.435Z,58.92
2018-09-13T13:39:31.646Z,58.25
2018-09-13T13:57:21.070Z,61.00
2018-09-13T14:07:20.703Z,57.52
2018-09-13T14:17:20.644Z,55.90
2018-09-13T14:27:20.572Z,54.36
2018-09-13T14:37:20.574Z,53.03
2018-09-13T14:47:20.651Z,55.17
2018-09-13T14:57:21.382Z,58.84
2018-09-13T15:07:20.650Z,63.38
2018-09-13T15:17:20.621Z,63.92
2018-09-13T15:27:21.088Z,64.41
2018-09-13T15:37:20.628Z,65.26
2018-09-13T15:47:20.591Z,63.53
2018-09-13T15:57:20.827Z,65.17
2018-09-13T16:07:20.750Z,64.92
2018-09-13T16:17:20.739Z,64.16
2018-09-13T16:27:20.676Z,63.65
2018-09-13T16:37:21.603Z,63.82
2018-09-13T16:47:20.629Z,62.63
2018-09-13T16:57:20.621Z,63.87
2018-09-13T17:07:20.644Z,66.52
2018-09-13T17:17:20.595Z,68.72
2018-09-13T17:27:20.845Z,69.93
2018-09-13T17:37:20.610Z,71.28
2018-09-13T17:47:20.610Z,71.54
2018-09-13T17:57:20.686Z,73.23
2018-09-13T18:07:20.656Z,73.63
2018-09-13T18:17:20.600Z,74.67
2018-09-13T18:27:20.794Z,75.15
2018-09-13T18:37:20.764Z,75.53
2018-09-13T18:47:20.627Z,79.06
2018-09-13T18:57:20.937Z,80.68
2018-09-13T19:07:20.606Z,83.79
2018-09-13T19:17:20.715Z,85.43
2018-09-13T19:27:20.619Z,87.36
2018-09-13T19:37:20.634Z,88.66
2018-09-13T19:47:20.738Z,89.75
2018-09-13T19:57:20.681Z,90.32
2018-09-13T20:07:20.622Z,92.21
2018-09-13T20:17:20.704Z,93.58
2018-09-13T20:27:20.684Z,94.51
2018-09-13T20:37:20.654Z,94.69
2018-09-13T20:47:20.613Z,96.02
2018-09-13T20:57:20.654Z,95.93
2018-09-13T21:07:20.940Z,97.33
2018-09-13T21:17:20.559Z,97.22
2018-09-13T21:27:20.555Z,97.56
2018-09-13T21:37:20.660Z,97.02
2018-09-13T21:47:20.717Z,97.84
2018-09-13T21:57:20.885Z,98.05
2018-09-13T22:07:20.689Z,98.41
2018-09-13T22:17:20.704Z,98.52
2018-09-13T22:27:20.616Z,98.72
2018-09-13T22:37:20.872Z,98.81
2018-09-13T22:47:20.654Z,98.42
2018-09-13T22:57:20.609Z,97.73
2018-09-13T23:07:20.666Z,96.23
2018-09-13T23:17:20.645Z,94.56
2018-09-13T23:27:20.670Z,94.01
2018-09-13T23:37:20.606Z,94.21
2018-09-13T23:47:21.243Z,93.95
2018-09-13T23:57:20.612Z,95.62
